createdAt,value
2018-09-25T00:02:07.782Z,96813.03
2018-09-25T00:04:41.486Z,96810.23
2018-09-25T00:07:15.178Z,96819.31
2018-09-25T00:09:49.310Z,96816.45
2018-09-25T00:12:23.793Z,96813.72
2018-09-25T00:14:58.224Z,96818.61
2018-09-25T00:17:32.124Z,96810.44
2018-09-25T00:20:06.521Z,96813.60
2018-09-25T00:22:40.200Z,96811.31
2018-09-25T00:25:15.359Z,96812.63
2018-09-25T00:27:49.093Z,96811.22
2018-09-25T00:30:23.603Z,96816.20
2018-09-25T00:32:58.026Z,96816.19
2018-09-25T00:35:33.251Z,96813.42
2018-09-25T00:38:07.678Z,96816.03
2018-09-25T00:40:41.669Z,96812.75
2018-09-25T00:43:16.033Z,96813.42
2018-09-25T00:45:49.650Z,96814.06
2018-09-25T00:48:23.279Z,96815.77
2018-09-25T00:50:56.949Z,96815.75
2018-09-25T00:53:30.623Z,96822.99
2018-09-25T00:56:04.402Z,96825.19
2018-09-25T00:58:37.998Z,96817.20
2018-09-25T01:01:11.602Z,96820.46
2018-09-25T01:03:45.249Z,96833.30
2018-09-25T01:06:18.848Z,96822.49
2018-09-25T01:08:52.564Z,96827.46
2018-09-25T01:11:26.174Z,96822.06
2018-09-25T01:13:59.762Z,96823.95
2018-09-25T01:16:33.394Z,96828.97
2018-09-25T01:19:07.095Z,96829.19
2018-09-25T01:21:41.430Z,96824.08
2018-09-25T01:24:15.053Z,96826.32
2018-09-25T01:26:48.584Z,96829.27
2018-09-25T01:29:22.299Z,96830.41
2018-09-25T01:31:56.636Z,96831.40
2018-09-25T01:34:30.223Z,96832.73
2018-09-25T01:37:04.019Z,96832.14
2018-09-25T01:39:38.451Z,96835.88
2018-09-25T01:42:12.038Z,96836.93
2018-09-25T01:44:45.653Z,96838.36
2018-09-25T01:47:19.186Z,96845.23
2018-09-25T01:49:52.862Z,96842.22
2018-09-25T01:52:26.497Z,96848.41
2018-09-25T01:55:00.262Z,96845.92
2018-09-25T01:57:33.856Z,96841.83
2018-09-25T02:00:07.676Z,96830.05
2018-09-25T02:02:41.320Z,96835.16
2018-09-25T02:05:15.002Z,96839.05
2018-09-25T02:07:48.718Z,96841.64
2018-09-25T02:10:22.339Z,96842.66
2018-09-25T02:12:55.974Z,96845.81
2018-09-25T02:15:29.569Z,96846.50
2018-09-25T02:18:03.343Z,96838.36
2018-09-25T02:20:36.892Z,96840.56
2018-09-25T02:23:10.606Z,96845.06
2018-09-25T02:25:44.240Z,96843.96
2018-09-25T02:28:17.836Z,96849.02
2018-09-25T02:30:51.614Z,96848.43
2018-09-25T02:33:25.299Z,96840.84
2018-09-25T02:35:58.950Z,96840.45
2018-09-25T02:38:32.722Z,96843.81
2018-09-25T02:41:06.625Z,96843.02
2018-09-25T02:43:40.282Z,96846.11
2018-09-25T02:46:13.941Z,96851.22
2018-09-25T02:48:48.341Z,96845.92
2018-09-25T02:51:21.961Z,96851.69
2018-09-25T02:53:55.537Z,96850.02
2018-09-25T02:56:29.174Z,96851.59
2018-09-25T02:59:02.763Z,96854.39
2018-09-25T03:01:36.558Z,96852.98
2018-09-25T03:04:10.966Z,96852.40
2018-09-25T03:06:44.563Z,96850.19
2018-09-25T03:09:18.593Z,96860.80
2018-09-25T03:11:53.574Z,96850.92
2018-09-25T03:14:27.192Z,96853.09
2018-09-25T03:17:00.812Z,96858.59
2018-09-25T03:19:34.381Z,96854.41
2018-09-25T03:22:08.021Z,96854.39
2018-09-25T03:24:42.320Z,96853.09
2018-09-25T03:27:16.670Z,96855.52
2018-09-25T03:29:51.115Z,96853.41
2018-09-25T03:32:24.680Z,96859.23
2018-09-25T03:34:58.423Z,96864.53
2018-09-25T03:37:32.797Z,96865.14
2018-09-25T03:40:06.437Z,96857.27
2018-09-25T03:42:40.278Z,96858.97
2018-09-25T03:45:13.848Z,96858.38
2018-09-25T03:47:47.564Z,96869.86
2018-09-25T03:50:21.298Z,96868.94
2018-09-25T03:52:54.828Z,96874.34
2018-09-25T03:55:28.449Z,96865.58
2018-09-25T03:58:02.110Z,96873.12
2018-09-25T04:00:36.459Z,96875.33
2018-09-25T04:03:10.003Z,96872.83
2018-09-25T04:05:43.715Z,96864.95
2018-09-25T04:08:17.294Z,96865.75
2018-09-25T04:10:50.960Z,96865.80
2018-09-25T04:13:25.137Z,96868.53
2018-09-25T04:15:59.495Z,96861.67
2018-09-25T04:18:33.063Z,96869.44
2018-09-25T04:21:06.678Z,96862.08
2018-09-25T04:23:41.053Z,96867.30
2018-09-25T04:26:14.762Z,96867.45
2018-09-25T04:28:49.172Z,96865.62
2018-09-25T04:31:23.558Z,96872.05
2018-09-25T04:33:57.202Z,96877.71
2018-09-25T04:36:31.601Z,96877.99
2018-09-25T04:39:05.475Z,96883.95
2018-09-25T04:41:40.636Z,96879.01
2018-09-25T04:44:14.969Z,96883.16
2018-09-25T04:46:48.587Z,96895.77
2018-09-25T04:49:22.225Z,96900.54
2018-09-25T04:51:57.154Z,96903.59
2018-09-25T04:54:30.718Z,96906.47
2018-09-25T04:57:04.373Z,96913.80
2018-09-25T04:59:38.274Z,96916.41
2018-09-25T05:02:12.171Z,96911.82
2018-09-25T05:04:45.787Z,96912.23
2018-09-25T05:07:19.385Z,96913.82
2018-09-25T05:09:53.114Z,96924.34
2018-09-25T05:12:26.692Z,96915.66
2018-09-25T05:15:00.425Z,96912.11
2018-09-25T05:17:34.350Z,96921.59
2018-09-25T05:20:08.055Z,96917.79
2018-09-25T05:22:41.787Z,96920.94
2018-09-25T05:25:15.464Z,96918.12
2018-09-25T05:27:49.024Z,96921.63
2018-09-25T05:30:22.592Z,96919.53
2018-09-25T05:32:56.274Z,96919.61
2018-09-25T05:35:30.046Z,96917.49
2018-09-25T05:38:04.425Z,96923.00
2018-09-25T05:40:38.807Z,96925.31
2018-09-25T05:43:12.625Z,96931.34
2018-09-25T05:45:46.247Z,96928.83
2018-09-25T05:48:19.935Z,96930.72
2018-09-25T05:50:53.498Z,96931.39
2018-09-25T05:53:27.099Z,96929.52
2018-09-25T05:56:07.843Z,96923.63
2018-09-25T05:58:41.419Z,96929.12
2018-09-25T06:01:15.074Z,96928.98
2018-09-25T06:03:48.675Z,96924.19
2018-09-25T06:06:22.376Z,96923.92
2018-09-25T06:08:56.017Z,96917.13
2018-09-25T06:11:29.587Z,96919.33
2018-09-25T06:14:03.247Z,96916.63
2018-09-25T06:16:37.373Z,96924.96
2018-09-25T06:19:11.191Z,96921.84
2018-09-25T06:21:45.658Z,96917.05
2018-09-25T06:24:19.310Z,96922.75
2018-09-25T06:26:53.649Z,96922.27
2018-09-25T06:29:27.996Z,96919.17
2018-09-25T06:32:01.741Z,96927.37
2018-09-25T06:34:35.490Z,96924.48
2018-09-25T06:37:09.940Z,96925.28
2018-09-25T06:39:43.834Z,96923.50
2018-09-25T06:42:18.395Z,96932.44
2018-09-25T06:44:52.787Z,96936.27
2018-09-25T06:47:26.375Z,96935.09
2018-09-25T06:50:00.718Z,96931.18
2018-09-25T06:52:34.351Z,96944.88
2018-09-25T06:55:07.971Z,96939.24
2018-09-25T06:57:41.586Z,96939.23
2018-09-25T07:00:15.219Z,96936.09
2018-09-25T07:02:49.599Z,96946.10
2018-09-25T07:05:23.773Z,96947.93
2018-09-25T07:07:57.477Z,96946.33
2018-09-25T07:10:31.204Z,96952.13
2018-09-25T07:13:05.385Z,96953.78
2018-09-25T07:15:39.014Z,96952.69
2018-09-25T07:18:12.602Z,96959.77
2018-09-25T07:20:46.415Z,96965.52
2018-09-25T07:23:20.014Z,96970.75
2018-09-25T07:25:53.591Z,96974.35
2018-09-25T07:28:27.242Z,96981.16
2018-09-25T07:31:00.934Z,96979.41
2018-09-25T07:33:34.585Z,96987.48
2018-09-25T07:36:08.310Z,96988.16
2018-09-25T07:38:42.146Z,96997.63
2018-09-25T07:41:15.762Z,96996.95
2018-09-25T07:43:49.414Z,96998.66
2018-09-25T07:46:23.302Z,97009.71
2018-09-25T07:48:57.040Z,97010.40
2018-09-25T07:51:30.579Z,97011.63
2018-09-25T07:54:04.155Z,97012.64
2018-09-25T07:56:37.858Z,97017.77
2018-09-25T07:59:11.694Z,97019.84
2018-09-25T08:01:46.080Z,97026.05
2018-09-25T08:04:19.667Z,97023.90
2018-09-25T08:06:53.247Z,97027.53
2018-09-25T08:09:26.842Z,97028.63
2018-09-25T08:12:00.477Z,97023.59
2018-09-25T08:14:35.035Z,97023.99
2018-09-25T08:17:09.544Z,97023.79
2018-09-25T08:19:43.189Z,97024.63
2018-09-25T08:22:16.830Z,97032.17
2018-09-25T08:24:50.412Z,97028.11
2018-09-25T08:27:23.924Z,97035.36
2018-09-25T08:29:57.484Z,97036.50
2018-09-25T08:32:32.075Z,97029.34
2018-09-25T08:35:06.480Z,97026.72
2018-09-25T08:37:39.984Z,97037.53
2018-09-25T08:40:13.611Z,97031.48
2018-09-25T08:42:47.239Z,97032.41
2018-09-25T08:45:21.663Z,97044.48
2018-09-25T08:47:55.344Z,97042.00
2018-09-25T08:50:29.034Z,97040.05
2018-09-25T08:53:03.350Z,97049.40
2018-09-25T08:55:37.297Z,97047.36
2018-09-25T08:58:11.334Z,97063.31
2018-09-25T09:00:44.981Z,97057.17
2018-09-25T09:03:18.604Z,97061.94
2018-09-25T09:05:53.070Z,97060.31
2018-09-25T09:08:26.686Z,97063.42
2018-09-25T09:11:00.158Z,97067.07
2018-09-25T09:13:33.727Z,97075.03
2018-09-25T09:16:07.339Z,97072.61
2018-09-25T09:18:40.832Z,97081.58
2018-09-25T09:21:14.306Z,97085.97
2018-09-25T09:23:47.806Z,97090.87
2018-09-25T09:26:21.307Z,97083.38
2018-09-25T09:28:55.074Z,97084.39
2018-09-25T09:31:28.580Z,97079.43
2018-09-25T09:34:02.215Z,97084.57
2018-09-25T09:36:35.715Z,97086.73
2018-09-25T09:39:09.918Z,97088.04
2018-09-25T09:41:43.551Z,97083.73
2018-09-25T09:44:16.903Z,97087.97
2018-09-25T09:46:50.425Z,97084.88
2018-09-25T09:49:23.887Z,97088.27
2018-09-25T09:51:57.451Z,97088.11
2018-09-25T09:54:31.059Z,97085.83
2018-09-25T09:57:04.574Z,97076.67
2018-09-25T09:59:38.075Z,97081.13
2018-09-25T10:02:11.599Z,97079.29
2018-09-25T10:04:45.088Z,97086.17
2018-09-25T10:09:58.219Z,97092.54
2018-09-25T10:12:31.811Z,97087.20
2018-09-25T10:15:05.196Z,97090.80
2018-09-25T10:17:39.764Z,97088.62
2018-09-25T10:20:13.464Z,97079.94
2018-09-25T10:22:47.206Z,97089.28
2018-09-25T10:28:13.155Z,97093.45
2018-09-25T10:30:46.747Z,97091.02
2018-09-25T10:33:21.698Z,97088.30
2018-09-25T10:35:55.477Z,97093.97
2018-09-25T10:38:29.213Z,97090.73
2018-09-25T10:41:03.778Z,97096.34
2018-09-25T10:43:37.441Z,97087.05
2018-09-25T10:46:11.135Z,97101.39
2018-09-25T10:48:44.620Z,97099.84
2018-09-25T10:51:18.247Z,97093.09
2018-09-25T10:53:51.739Z,97084.98
2018-09-25T10:56:25.232Z,97082.87
2018-09-25T10:58:58.718Z,97078.34
2018-09-25T11:01:36.399Z,97088.98
2018-09-25T11:04:10.040Z,97086.80
2018-09-25T11:06:43.543Z,97088.67
2018-09-25T11:09:17.022Z,97078.17
2018-09-25T11:11:50.515Z,97083.38
2018-09-25T11:14:24.019Z,97083.13
2018-09-25T11:16:57.540Z,97087.86
2018-09-25T11:19:30.977Z,97087.86
2018-09-25T11:22:04.447Z,97087.78
2018-09-25T11:24:37.929Z,97083.79
2018-09-25T11:27:11.446Z,97086.28
2018-09-25T11:29:45.099Z,97086.62
2018-09-25T11:32:18.597Z,97087.31
2018-09-25T11:34:52.328Z,97089.51
2018-09-25T11:37:25.795Z,97085.45
2018-09-25T11:39:59.259Z,97089.18
2018-09-25T11:42:32.890Z,97088.87
2018-09-25T11:45:07.991Z,97092.00
2018-09-25T11:47:42.355Z,97102.83
2018-09-25T11:50:16.279Z,97103.48
2018-09-25T11:52:49.947Z,97099.70
2018-09-25T11:55:23.515Z,97098.41
2018-09-25T11:57:59.351Z,97099.10
2018-09-25T12:00:33.085Z,97092.77
2018-09-25T12:03:06.753Z,97095.02
2018-09-25T12:05:41.222Z,97098.95
2018-09-25T12:08:15.473Z,97099.63
2018-09-25T12:10:50.656Z,97099.29
2018-09-25T12:13:24.307Z,97090.28
2018-09-25T12:15:57.787Z,97089.97
2018-09-25T12:18:31.352Z,97076.64
2018-09-25T12:21:05.098Z,97078.02
2018-09-25T12:23:38.672Z,97071.19
2018-09-25T12:26:12.366Z,97065.58
2018-09-25T12:28:46.734Z,97069.83
2018-09-25T12:31:21.106Z,97071.08
2018-09-25T12:34:00.424Z,97061.52
2018-09-25T12:36:34.883Z,97054.92
2018-09-25T12:39:08.733Z,97075.30
2018-09-25T12:41:42.347Z,97068.26
2018-09-25T12:44:16.770Z,97059.22
2018-09-25T12:46:50.567Z,97059.25
2018-09-25T12:49:24.144Z,97059.69
2018-09-25T12:51:58.192Z,97073.09
2018-09-25T12:54:31.804Z,97069.36
2018-09-25T12:57:05.406Z,97058.24
2018-09-25T12:59:38.972Z,97061.87
2018-09-25T13:02:13.387Z,97053.80
2018-09-25T13:04:46.967Z,97056.46
2018-09-25T13:07:24.600Z,97061.09
2018-09-25T13:09:58.152Z,97066.53
2018-09-25T13:12:31.836Z,97063.91
2018-09-25T13:15:05.447Z,97045.47
2018-09-25T13:17:39.181Z,97045.18
2018-09-25T13:20:12.759Z,97049.50
2018-09-25T13:22:46.362Z,97049.91
2018-09-25T13:25:20.163Z,97048.33
2018-09-25T13:27:53.760Z,97047.51
2018-09-25T13:30:27.376Z,97037.41
2018-09-25T13:33:01.718Z,97020.69
2018-09-25T13:35:35.379Z,97020.05
2018-09-25T13:38:09.923Z,97016.97
2018-09-25T13:40:43.529Z,97017.70
2018-09-25T13:43:17.379Z,97012.99
2018-09-25T13:45:51.240Z,97019.86
2018-09-25T13:48:24.827Z,97016.84
2018-09-25T13:50:58.471Z,97005.42
2018-09-25T13:53:32.124Z,97009.39
2018-09-25T13:56:06.854Z,96997.52
2018-09-25T13:58:40.422Z,96994.92
2018-09-25T14:01:14.281Z,96994.62
2018-09-25T14:03:48.077Z,96990.80
2018-09-25T14:06:21.841Z,96992.72
2018-09-25T14:08:55.452Z,96988.88
2018-09-25T14:11:28.998Z,96988.13
2018-09-25T14:14:03.354Z,96999.94
2018-09-25T14:16:37.498Z,96993.75
2018-09-25T14:19:11.094Z,96990.08
2018-09-25T14:21:44.877Z,96989.01
2018-09-25T14:24:18.470Z,96990.05
2018-09-25T14:26:52.810Z,96986.44
2018-09-25T14:29:26.423Z,96983.62
2018-09-25T14:32:00.138Z,96985.34
2018-09-25T14:34:34.495Z,96984.58
2018-09-25T14:37:08.196Z,96983.31
2018-09-25T14:39:42.611Z,96982.52
2018-09-25T14:42:17.028Z,96982.39
2018-09-25T14:44:51.175Z,96977.87
2018-09-25T14:47:24.864Z,96982.03
2018-09-25T14:49:58.510Z,96976.79
2018-09-25T14:52:32.165Z,96976.83
2018-09-25T14:55:06.703Z,96984.97
2018-09-25T14:57:40.323Z,96979.14
2018-09-25T15:00:14.725Z,96982.25
2018-09-25T15:02:48.329Z,96972.63
2018-09-25T15:05:22.803Z,96969.75
2018-09-25T15:07:56.662Z,96967.42
2018-09-25T15:10:30.369Z,96967.72
2018-09-25T15:13:04.914Z,96963.80
2018-09-25T15:15:39.441Z,96953.64
2018-09-25T15:18:13.238Z,96943.69
2018-09-25T15:20:46.911Z,96941.03
2018-09-25T15:23:20.779Z,96939.16
2018-09-25T15:25:55.388Z,96934.98
2018-09-25T15:28:28.983Z,96933.20
2018-09-25T15:31:03.346Z,96941.31
2018-09-25T15:33:36.969Z,96932.62
2018-09-25T15:36:10.859Z,96927.41
2018-09-25T15:38:44.526Z,96930.00
2018-09-25T15:41:18.822Z,96931.52
2018-09-25T15:43:52.693Z,96927.70
2018-09-25T15:46:27.933Z,96929.86
2018-09-25T15:49:02.041Z,96939.72
2018-09-25T15:51:36.687Z,96928.63
2018-09-25T15:54:10.579Z,96931.92
2018-09-25T15:56:44.495Z,96928.94
2018-09-25T15:59:19.097Z,96924.14
2018-09-25T16:04:39.654Z,96927.47
2018-09-25T16:07:13.663Z,96928.66
2018-09-25T16:09:47.560Z,96932.09
2018-09-25T16:12:22.219Z,96933.65
2018-09-25T16:14:56.913Z,96941.03
2018-09-25T16:17:31.749Z,96939.02
2018-09-25T16:20:05.550Z,96951.98
2018-09-25T16:22:39.216Z,96955.07
2018-09-25T16:25:12.896Z,96959.28
2018-09-25T16:27:46.556Z,96967.47
2018-09-25T16:30:20.204Z,96973.84
2018-09-25T16:32:53.976Z,96978.94
2018-09-25T16:35:27.746Z,96972.30
2018-09-25T16:38:01.441Z,96979.22
2018-09-25T16:40:35.263Z,96977.67
2018-09-25T16:43:08.951Z,96975.67
2018-09-25T16:45:42.612Z,96968.27
2018-09-25T16:48:16.249Z,96967.84
2018-09-25T16:50:50.027Z,96972.53
2018-09-25T16:53:23.683Z,96979.28
2018-09-25T16:55:57.418Z,96981.09
2018-09-25T16:58:31.228Z,96988.25
2018-09-25T17:01:05.028Z,96999.35
2018-09-25T17:03:38.827Z,96996.25
2018-09-25T17:06:12.702Z,96999.45
2018-09-25T17:08:47.362Z,96995.91
2018-09-25T17:11:21.290Z,96996.70
2018-09-25T17:13:55.139Z,96997.05
2018-09-25T17:16:28.798Z,97000.48
2018-09-25T17:19:02.383Z,97001.21
2018-09-25T17:21:36.043Z,96996.06
2018-09-25T17:24:09.695Z,96993.44
2018-09-25T17:26:44.124Z,96988.63
2018-09-25T17:29:18.717Z,96982.92
2018-09-25T17:31:52.330Z,96987.93
2018-09-25T17:34:26.013Z,96983.73
2018-09-25T17:37:00.408Z,96979.27
2018-09-25T17:39:34.061Z,96990.67
2018-09-25T17:42:07.665Z,96979.27
2018-09-25T17:44:41.491Z,96989.78
2018-09-25T17:47:15.145Z,96994.61
2018-09-25T17:49:49.452Z,96996.47
2018-09-25T17:52:23.075Z,97000.94
2018-09-25T17:54:56.766Z,97000.93
2018-09-25T17:57:30.427Z,97008.84
2018-09-25T18:00:04.080Z,97009.28
2018-09-25T18:02:37.823Z,97022.15
2018-09-25T18:05:11.472Z,97030.61
2018-09-25T18:07:45.260Z,97024.48
2018-09-25T18:10:18.935Z,97031.10
2018-09-25T18:12:52.634Z,97040.09
2018-09-25T18:15:26.226Z,97045.88
2018-09-25T18:17:59.904Z,97051.57
2018-09-25T18:20:34.663Z,97050.97
2018-09-25T18:23:08.341Z,97057.05
2018-09-25T18:25:42.039Z,97051.63
2018-09-25T18:28:16.642Z,97049.33
2018-09-25T18:30:50.992Z,97037.58
2018-09-25T18:33:24.847Z,97027.56
2018-09-25T18:35:58.371Z,97024.97
2018-09-25T18:38:38.552Z,97021.40
2018-09-25T18:41:12.895Z,97018.64
2018-09-25T18:43:47.307Z,97007.02
2018-09-25T18:46:21.445Z,97004.46
2018-09-25T18:48:55.148Z,97002.61
2018-09-25T18:51:28.922Z,96995.89
2018-09-25T18:54:02.681Z,96995.75
2018-09-25T18:56:37.081Z,96996.02
2018-09-25T18:59:14.471Z,96993.22
2018-09-25T19:04:33.015Z,96983.23
2018-09-25T19:07:07.288Z,96993.84
2018-09-25T19:09:43.133Z,97003.02
2018-09-25T19:12:16.896Z,96999.19
2018-09-25T19:14:50.664Z,96999.19
2018-09-25T19:17:24.483Z,97003.73
2018-09-25T19:19:59.099Z,97006.25
2018-09-25T19:22:32.722Z,96995.06
2018-09-25T19:25:06.620Z,97000.86
2018-09-25T19:27:41.354Z,97005.41
2018-09-25T19:33:11.850Z,97003.94
2018-09-25T19:35:45.717Z,97004.16
2018-09-25T19:38:20.176Z,97008.31
2018-09-25T19:40:53.959Z,97017.94
2018-09-25T19:43:27.601Z,97027.12
2018-09-25T19:46:01.232Z,97034.72
2018-09-25T19:48:35.187Z,97032.40
2018-09-25T19:51:08.808Z,97042.16
2018-09-25T19:53:42.573Z,97037.13
2018-09-25T19:56:16.302Z,97041.51
2018-09-25T19:58:50.593Z,97039.17
2018-09-25T20:01:24.264Z,97031.03
2018-09-25T20:03:58.017Z,97016.98
2018-09-25T20:06:31.669Z,97010.33
2018-09-25T20:09:05.466Z,97009.73
2018-09-25T20:11:39.382Z,97006.02
2018-09-25T20:14:13.182Z,97009.37
2018-09-25T20:16:47.422Z,97003.28
2018-09-25T20:19:21.314Z,97001.28
2018-09-25T20:21:55.107Z,96996.75
2018-09-25T20:24:28.740Z,96982.16
2018-09-25T20:27:02.779Z,96981.53
2018-09-25T20:29:37.445Z,96985.75
2018-09-25T20:32:11.343Z,96978.58
2018-09-25T20:34:45.063Z,96976.00
2018-09-25T20:37:19.214Z,96979.17
2018-09-25T20:39:53.490Z,96984.25
2018-09-25T20:42:27.161Z,96978.06
2018-09-25T20:45:00.803Z,96981.02
2018-09-25T20:47:34.439Z,96979.35
2018-09-25T20:50:08.083Z,96983.16
2018-09-25T20:52:41.703Z,96979.89
2018-09-25T20:55:16.238Z,96986.93
2018-09-25T20:57:49.888Z,96988.56
2018-09-25T21:00:23.551Z,96987.83
2018-09-25T21:02:57.225Z,96989.81
2018-09-25T21:05:31.112Z,96993.82
2018-09-25T21:08:04.695Z,97002.50
2018-09-25T21:10:38.401Z,97001.84
2018-09-25T21:13:12.257Z,96995.84
2018-09-25T21:15:46.775Z,96979.78
2018-09-25T21:18:22.111Z,96985.44
2018-09-25T21:20:56.604Z,96982.26
2018-09-25T21:23:30.958Z,96983.78
2018-09-25T21:26:04.711Z,96989.94
2018-09-25T21:28:38.386Z,96986.55
2018-09-25T21:31:12.740Z,96979.42
2018-09-25T21:33:46.515Z,96989.56
2018-09-25T21:36:20.288Z,96983.42
2018-09-25T21:38:54.741Z,96975.30
2018-09-25T21:41:28.317Z,96964.73
2018-09-25T21:44:01.992Z,96970.66
2018-09-25T21:46:35.679Z,96965.52
2018-09-25T21:49:10.433Z,96963.65
2018-09-25T21:51:44.852Z,96959.18
2018-09-25T21:54:18.367Z,96959.67
2018-09-25T21:56:52.959Z,96949.59
2018-09-25T21:59:26.496Z,96963.59
2018-09-25T22:02:00.398Z,96968.89
2018-09-25T22:04:34.822Z,96954.09
2018-09-25T22:07:09.271Z,96949.84
2018-09-25T22:09:42.932Z,96945.56
2018-09-25T22:12:17.492Z,96941.61
2018-09-25T22:14:51.855Z,96934.02
2018-09-25T22:17:25.458Z,96918.47
2018-09-25T22:19:59.147Z,96922.16
2018-09-25T22:22:33.477Z,96921.31
2018-09-25T22:25:07.858Z,96923.76
2018-09-25T22:27:41.422Z,96917.55
2018-09-25T22:30:15.090Z,96920.52
2018-09-25T22:32:48.901Z,96914.05
2018-09-25T22:35:22.515Z,96906.81
2018-09-25T22:37:56.099Z,96896.73
2018-09-25T22:40:29.774Z,96899.85
2018-09-25T22:43:03.563Z,96895.68
2018-09-25T22:45:37.620Z,96889.46
2018-09-25T22:48:11.504Z,96881.95
2018-09-25T22:50:45.138Z,96886.67
2018-09-25T22:53:18.881Z,96883.55
2018-09-25T22:55:53.395Z,96864.56
2018-09-25T22:58:27.187Z,96851.50
2018-09-25T23:01:00.846Z,96843.77
2018-09-25T23:03:34.764Z,96834.39
2018-09-25T23:06:08.423Z,96845.15
2018-09-25T23:08:42.052Z,96840.42
2018-09-25T23:11:15.775Z,96844.11
2018-09-25T23:13:49.513Z,96838.42
2018-09-25T23:16:23.152Z,96835.42
2018-09-25T23:18:56.757Z,96836.96
2018-09-25T23:21:31.240Z,96831.48
2018-09-25T23:24:04.979Z,96829.26
2018-09-25T23:26:38.707Z,96825.68
2018-09-25T23:29:12.471Z,96838.95
2018-09-25T23:31:46.263Z,96825.73
2018-09-25T23:34:20.183Z,96833.66
2018-09-25T23:36:54.559Z,96836.38
2018-09-25T23:39:28.256Z,96837.72
2018-09-25T23:42:01.227Z,96839.21
2018-09-25T23:46:42.655Z,96833.22
2018-09-25T23:49:19.421Z,96835.56
2018-09-25T23:51:52.823Z,96840.72
2018-09-25T23:54:29.713Z,96840.00
2018-09-25T23:57:05.514Z,96841.20
2018-09-25T23:59:38.432Z,96840.56
